Time;durP1;ratioP1;P1;durP2;ratioP2;P2;SDS_P1;SDS_P2;PMS_P1;PMS_P2;Temp;Humidity;BMP_temperature;BMP_pressure;BME280_temperature;BME280_humidity;BME280_pressure;Samples;Min_cycle;Max_cycle;Signal;HPM_P1;HPM_P2
2023/07/02 00:00:51;;;;;;;32.25;11.80;;;;;;;;;;5024440;28;20029;-70
2023/07/02 00:03:18;;;;;;;34.83;11.63;;;;;;;;;;5024480;28;20105;-70
2023/07/02 00:05:43;;;;;;;29.33;12.32;;;;;;;;;;5025312;28;20127;-70
2023/07/02 00:08:08;;;;;;;35.42;12.18;;;;;;;;;;5023394;28;20025;-70
2023/07/02 00:10:34;;;;;;;32.47;12.30;;;;;;;;;;5024621;28;20069;-70
2023/07/02 00:12:59;;;;;;;30.70;11.70;;;;;;;;;;5011141;28;20696;-68
2023/07/02 00:15:24;;;;;;;34.47;12.52;;;;;;;;;;5019657;28;20546;-70
2023/07/02 00:17:50;;;;;;;29.08;11.93;;;;;;;;;;5020225;28;20044;-69
2023/07/02 00:20:16;;;;;;;31.80;12.18;;;;;;;;;;5020361;28;20052;-69
2023/07/02 00:22:44;;;;;;;33.45;13.07;;;;;;;;;;5024955;28;20033;-70
2023/07/02 00:25:10;;;;;;;30.15;11.93;;;;;;;;;;5022013;28;20033;-70
2023/07/02 00:27:35;;;;;;;36.15;12.40;;;;;;;;;;5023387;28;20025;-70
2023/07/02 00:30:00;;;;;;;32.47;12.15;;;;;;;;;;5021618;28;20034;-70
2023/07/02 00:32:26;;;;;;;28.55;11.88;;;;;;;;;;5009610;28;20446;-70
2023/07/02 00:34:51;;;;;;;31.52;12.93;;;;;;;;;;5015949;28;20537;-69
2023/07/02 00:37:16;;;;;;;39.50;11.90;;;;;;;;;;5024023;28;20034;-69
2023/07/02 00:39:42;;;;;;;30.10;11.77;;;;;;;;;;5021092;28;20022;-69
2023/07/02 00:42:08;;;;;;;40.80;12.77;;;;;;;;;;5012526;28;20533;-70
2023/07/02 00:44:40;;;;;;;39.53;14.73;;;;;;;;;;5023363;28;20914;-69
2023/07/02 00:47:07;;;;;;;43.20;14.30;;;;;;;;;;5022456;28;20534;-70
2023/07/02 00:49:33;;;;;;;35.20;12.60;;;;;;;;;;5023942;28;20191;-70
2023/07/02 00:51:58;;;;;;;35.70;13.38;;;;;;;;;;5022804;28;20526;-69
2023/07/02 00:54:24;;;;;;;33.88;12.93;;;;;;;;;;5020139;28;20543;-69
2023/07/02 00:56:50;;;;;;;33.63;13.93;;;;;;;;;;5022407;28;20040;-69
2023/07/02 00:59:15;;;;;;;39.78;13.73;;;;;;;;;;5021750;28;20109;-69
2023/07/02 01:01:41;;;;;;;46.08;14.85;;;;;;;;;;5021348;28;20038;-69
2023/07/02 01:04:12;;;;;;;40.17;14.13;;;;;;;;;;5021739;28;20052;-70
2023/07/02 01:06:40;;;;;;;47.63;15.90;;;;;;;;;;5024838;28;20136;-69
2023/07/02 01:09:06;;;;;;;38.63;13.73;;;;;;;;;;5023632;28;20044;-69
2023/07/02 01:11:40;;;;;;;38.38;13.73;;;;;;;;;;5024663;28;20103;-69
2023/07/02 01:14:11;;;;;;;39.45;13.70;;;;;;;;;;5012598;28;20494;-69
2023/07/02 01:16:38;;;;;;;36.97;13.80;;;;;;;;;;5029093;28;20030;-70
2023/07/02 01:19:10;;;;;;;39.20;13.30;;;;;;;;;;5028029;28;20026;-69
2023/07/02 01:21:36;;;;;;;36.70;13.57;;;;;;;;;;5030767;28;20028;-69
2023/07/02 01:24:01;;;;;;;43.67;13.10;;;;;;;;;;5028426;28;20029;-69
2023/07/02 01:26:34;;;;;;;39.05;13.68;;;;;;;;;;5026958;28;20037;-69
2023/07/02 01:29:12;;;;;;;39.95;13.68;;;;;;;;;;5028008;28;20065;-70
2023/07/02 01:31:38;;;;;;;36.42;14.60;;;;;;;;;;5028459;28;20041;-69
2023/07/02 01:34:04;;;;;;;37.78;13.70;;;;;;;;;;5028135;28;20038;-70
2023/07/02 01:36:30;;;;;;;38.00;13.95;;;;;;;;;;5029038;28;20112;-69
2023/07/02 01:38:55;;;;;;;38.38;13.65;;;;;;;;;;5027872;28;20116;-71
2023/07/02 01:41:20;;;;;;;47.42;15.20;;;;;;;;;;5027754;28;20760;-70
2023/07/02 01:43:45;;;;;;;39.97;14.40;;;;;;;;;;5028429;28;20518;-69
2023/07/02 01:46:11;;;;;;;42.25;14.60;;;;;;;;;;5028394;28;20029;-70
2023/07/02 01:48:36;;;;;;;43.15;15.38;;;;;;;;;;5028115;28;20113;-69
2023/07/02 01:51:02;;;;;;;42.58;14.35;;;;;;;;;;5028095;28;20103;-69
2023/07/02 01:53:28;;;;;;;47.63;16.70;;;;;;;;;;5027814;28;20048;-69
2023/07/02 01:55:53;;;;;;;47.13;14.75;;;;;;;;;;5026368;28;20415;-69
2023/07/02 01:58:18;;;;;;;48.00;15.60;;;;;;;;;;5027265;28;20083;-70
2023/07/02 02:00:43;;;;;;;45.22;15.57;;;;;;;;;;5026394;28;20103;-69
2023/07/02 02:03:09;;;;;;;41.83;15.63;;;;;;;;;;5027983;28;20024;-70
2023/07/02 02:05:35;;;;;;;45.63;14.23;;;;;;;;;;5027334;28;20419;-69
2023/07/02 02:08:00;;;;;;;42.90;14.88;;;;;;;;;;5027513;28;20554;-69
2023/07/02 02:10:25;;;;;;;39.95;15.18;;;;;;;;;;5026436;28;20091;-70
2023/07/02 02:12:51;;;;;;;39.83;14.88;;;;;;;;;;5024647;28;20027;-69
2023/07/02 02:15:16;;;;;;;41.45;14.93;;;;;;;;;;5027140;28;20028;-70
2023/07/02 02:17:41;;;;;;;48.92;15.60;;;;;;;;;;5026257;28;20029;-69
2023/07/02 02:20:08;;;;;;;44.20;16.00;;;;;;;;;;5025177;28;20025;-69
2023/07/02 02:22:33;;;;;;;40.28;14.57;;;;;;;;;;5022633;28;20037;-70
2023/07/02 02:24:58;;;;;;;44.78;15.45;;;;;;;;;;5027270;28;20032;-69
2023/07/02 02:27:24;;;;;;;49.10;15.02;;;;;;;;;;5027760;28;20029;-69
2023/07/02 02:29:49;;;;;;;48.80;15.57;;;;;;;;;;5013220;28;20042;-69
2023/07/02 02:32:17;;;;;;;45.35;14.18;;;;;;;;;;5024527;28;20396;-69
2023/07/02 02:34:42;;;;;;;46.42;15.13;;;;;;;;;;5027063;28;20388;-69
2023/07/02 02:37:08;;;;;;;43.35;13.60;;;;;;;;;;5027630;28;20740;-69
2023/07/02 02:39:33;;;;;;;41.47;14.80;;;;;;;;;;5028041;28;20029;-70
2023/07/02 02:41:58;;;;;;;43.13;14.65;;;;;;;;;;5032106;28;20101;-69
2023/07/02 02:44:24;;;;;;;46.47;15.57;;;;;;;;;;5028651;28;20065;-69
2023/07/02 02:46:49;;;;;;;40.80;14.77;;;;;;;;;;5027465;28;20588;-69
2023/07/02 02:49:14;;;;;;;48.15;16.50;;;;;;;;;;5024964;28;20112;-69
2023/07/02 02:51:40;;;;;;;44.42;15.32;;;;;;;;;;5026892;28;20026;-69
2023/07/02 02:54:05;;;;;;;48.22;16.80;;;;;;;;;;5059150;28;20769;-69
2023/07/02 02:56:31;;;;;;;44.95;16.00;;;;;;;;;;5026665;28;20344;-69
2023/07/02 02:58:56;;;;;;;47.13;15.73;;;;;;;;;;5026444;28;20671;-70
2023/07/02 03:01:21;;;;;;;41.83;14.82;;;;;;;;;;5025224;28;20033;-69
2023/07/02 03:03:47;;;;;;;44.40;15.23;;;;;;;;;;5026362;28;20435;-69
2023/07/02 03:06:15;;;;;;;61.20;16.23;;;;;;;;;;5026806;28;20061;-69
2023/07/02 03:08:41;;;;;;;44.25;15.80;;;;;;;;;;5025111;28;20048;-70
2023/07/02 03:11:06;;;;;;;49.25;16.17;;;;;;;;;;5026477;28;20029;-69
2023/07/02 03:13:32;;;;;;;52.38;16.50;;;;;;;;;;5026051;28;20033;-69
2023/07/02 03:15:57;;;;;;;36.85;14.27;;;;;;;;;;5023400;28;20030;-69
2023/07/02 03:18:22;;;;;;;45.13;15.50;;;;;;;;;;5026682;28;20608;-69
2023/07/02 03:20:48;;;;;;;38.47;14.82;;;;;;;;;;5024734;28;20083;-70
2023/07/02 03:23:13;;;;;;;44.58;15.65;;;;;;;;;;5024111;28;20526;-69
2023/07/02 03:25:38;;;;;;;54.95;17.02;;;;;;;;;;5026511;28;20526;-69
2023/07/02 03:28:04;;;;;;;47.20;16.05;;;;;;;;;;5024488;28;20033;-69
2023/07/02 03:30:29;;;;;;;48.17;15.75;;;;;;;;;;5024869;28;20035;-69
2023/07/02 03:32:54;;;;;;;48.65;16.17;;;;;;;;;;5026129;28;20124;-70
2023/07/02 03:35:20;;;;;;;43.80;15.23;;;;;;;;;;5024870;28;20042;-69
2023/07/02 03:37:46;;;;;;;46.72;16.52;;;;;;;;;;5024593;28;20048;-69
2023/07/02 03:40:11;;;;;;;49.38;17.23;;;;;;;;;;5026051;28;20037;-69
2023/07/02 03:42:36;;;;;;;48.22;15.35;;;;;;;;;;5026583;28;20029;-69
2023/07/02 03:45:03;;;;;;;44.40;16.30;;;;;;;;;;5025924;28;20030;-69
2023/07/02 03:47:28;;;;;;;44.50;16.25;;;;;;;;;;5024507;28;20454;-69
2023/07/02 03:49:54;;;;;;;40.88;15.90;;;;;;;;;;5025826;28;20515;-69
2023/07/02 03:52:19;;;;;;;45.72;14.88;;;;;;;;;;5024364;28;20481;-70
2023/07/02 03:54:44;;;;;;;44.13;15.65;;;;;;;;;;5025755;28;20113;-69
2023/07/02 03:57:10;;;;;;;58.22;15.40;;;;;;;;;;5025890;28;20021;-69
2023/07/02 03:59:35;;;;;;;45.38;15.65;;;;;;;;;;5024388;28;20033;-70
2023/07/02 04:02:00;;;;;;;41.97;16.00;;;;;;;;;;5025760;28;20064;-69
2023/07/02 04:04:26;;;;;;;39.50;15.07;;;;;;;;;;5026351;28;20117;-69
2023/07/02 04:06:51;;;;;;;52.40;15.85;;;;;;;;;;5028603;28;20025;-68
2023/07/02 04:09:18;;;;;;;50.67;15.38;;;;;;;;;;5032725;28;20107;-70
2023/07/02 04:11:44;;;;;;;41.65;15.90;;;;;;;;;;5026456;28;20037;-69
2023/07/02 04:14:09;;;;;;;46.75;15.48;;;;;;;;;;5025728;28;20045;-69
2023/07/02 04:16:34;;;;;;;45.83;15.90;;;;;;;;;;5022808;28;20573;-69
2023/07/02 04:18:59;;;;;;;43.92;15.80;;;;;;;;;;5025816;28;20662;-69
2023/07/02 04:21:25;;;;;;;45.95;15.10;;;;;;;;;;5026122;28;20040;-69
2023/07/02 04:23:50;;;;;;;43.60;14.73;;;;;;;;;;5023567;28;20048;-69
2023/07/02 04:26:15;;;;;;;46.58;15.55;;;;;;;;;;5023794;28;20038;-69
2023/07/02 04:28:41;;;;;;;42.35;14.95;;;;;;;;;;5025182;28;20557;-70
2023/07/02 04:31:06;;;;;;;39.20;14.63;;;;;;;;;;5025295;28;20033;-69
2023/07/02 04:33:35;;;;;;;48.03;14.77;;;;;;;;;;5022544;28;20053;-69
2023/07/02 04:36:04;;;;;;;47.67;16.13;;;;;;;;;;5019648;28;20041;-69
2023/07/02 04:38:29;;;;;;;40.40;14.98;;;;;;;;;;5025324;28;20030;-69
2023/07/02 04:40:57;;;;;;;52.80;15.82;;;;;;;;;;5025104;28;20033;-69
2023/07/02 04:43:23;;;;;;;47.22;15.32;;;;;;;;;;5024310;28;20041;-69
2023/07/02 04:45:49;;;;;;;51.67;15.98;;;;;;;;;;5023896;28;20053;-69
2023/07/02 04:48:14;;;;;;;39.08;14.88;;;;;;;;;;5024418;28;20021;-69
2023/07/02 04:50:39;;;;;;;47.33;14.85;;;;;;;;;;5024743;28;20041;-69
2023/07/02 04:53:05;;;;;;;39.63;14.43;;;;;;;;;;5025251;28;20033;-69
2023/07/02 04:55:30;;;;;;;47.97;15.57;;;;;;;;;;5018812;28;20038;-69
2023/07/02 04:57:55;;;;;;;51.83;15.93;;;;;;;;;;5024110;28;20037;-69
2023/07/02 05:00:22;;;;;;;43.88;14.50;;;;;;;;;;5028447;28;20619;-70
2023/07/02 05:02:47;;;;;;;42.30;14.75;;;;;;;;;;5027272;28;20029;-69
2023/07/02 05:05:12;;;;;;;55.20;15.85;;;;;;;;;;5027112;28;20048;-69
2023/07/02 05:07:40;;;;;;;43.13;14.75;;;;;;;;;;5028385;28;20037;-69
2023/07/02 05:10:06;;;;;;;49.75;15.15;;;;;;;;;;5015978;28;20032;-69
2023/07/02 05:12:31;;;;;;;51.65;15.80;;;;;;;;;;5025893;28;20029;-69
2023/07/02 05:14:56;;;;;;;40.92;14.25;;;;;;;;;;5029081;28;20040;-69
2023/07/02 05:17:22;;;;;;;42.90;14.50;;;;;;;;;;5025633;28;20037;-69
2023/07/02 05:19:47;;;;;;;41.92;15.15;;;;;;;;;;5028480;28;20038;-69
2023/07/02 05:22:12;;;;;;;44.33;14.70;;;;;;;;;;5028270;28;20026;-69
2023/07/02 05:24:38;;;;;;;41.38;14.07;;;;;;;;;;5028515;28;20014;-69
2023/07/02 05:27:04;;;;;;;44.28;14.85;;;;;;;;;;5028695;28;20476;-69
2023/07/02 05:29:30;;;;;;;45.05;15.35;;;;;;;;;;5028928;28;20038;-69
2023/07/02 05:31:55;;;;;;;40.00;14.32;;;;;;;;;;5030331;28;20062;-69
2023/07/02 05:34:20;;;;;;;46.25;14.63;;;;;;;;;;5031271;28;20037;-69
2023/07/02 05:36:46;;;;;;;46.53;14.63;;;;;;;;;;5029570;28;20545;-69
2023/07/02 05:39:11;;;;;;;40.65;14.75;;;;;;;;;;5027141;28;20022;-70
2023/07/02 05:41:37;;;;;;;44.50;15.52;;;;;;;;;;5027880;28;20075;-70
2023/07/02 05:44:02;;;;;;;42.05;14.18;;;;;;;;;;5028009;28;20037;-69
2023/07/02 05:46:28;;;;;;;41.63;14.43;;;;;;;;;;5028267;28;20038;-69
2023/07/02 05:48:56;;;;;;;46.42;14.52;;;;;;;;;;5027818;28;20025;-69
2023/07/02 05:51:22;;;;;;;38.45;13.48;;;;;;;;;;5028254;28;20358;-69
2023/07/02 05:53:47;;;;;;;45.25;14.77;;;;;;;;;;5028149;28;20116;-69
2023/07/02 05:56:13;;;;;;;37.92;13.77;;;;;;;;;;5028009;28;20053;-70
2023/07/02 05:58:38;;;;;;;36.25;13.98;;;;;;;;;;5027431;28;20042;-69
2023/07/02 06:01:05;;;;;;;44.22;14.50;;;;;;;;;;5027600;28;20033;-69
2023/07/02 06:03:31;;;;;;;46.38;15.80;;;;;;;;;;5026752;28;20033;-69
2023/07/02 06:05:56;;;;;;;37.15;14.15;;;;;;;;;;5027811;28;20103;-69
2023/07/02 06:08:21;;;;;;;42.03;14.50;;;;;;;;;;5027325;28;20034;-69
2023/07/02 06:10:47;;;;;;;41.22;14.68;;;;;;;;;;5026388;28;20037;-69
2023/07/02 06:13:13;;;;;;;43.03;14.30;;;;;;;;;;5027363;28;20049;-69
2023/07/02 06:15:39;;;;;;;43.75;14.63;;;;;;;;;;5023973;28;20130;-69
2023/07/02 06:18:04;;;;;;;42.35;14.00;;;;;;;;;;5027684;28;20034;-69
2023/07/02 06:20:29;;;;;;;42.83;14.07;;;;;;;;;;5027629;28;20045;-69
2023/07/02 06:22:55;;;;;;;38.33;14.43;;;;;;;;;;5027708;28;20029;-69
2023/07/02 06:25:20;;;;;;;37.83;13.10;;;;;;;;;;5025725;28;20037;-69
2023/07/02 06:27:46;;;;;;;35.75;13.80;;;;;;;;;;5027607;28;20029;-69
2023/07/02 06:30:11;;;;;;;35.67;13.07;;;;;;;;;;5027769;28;20689;-69
2023/07/02 06:32:37;;;;;;;37.72;14.15;;;;;;;;;;5026776;28;20132;-69
2023/07/02 06:35:03;;;;;;;40.97;14.00;;;;;;;;;;5027532;28;20049;-69
2023/07/02 06:37:28;;;;;;;35.72;13.13;;;;;;;;;;5025732;28;20111;-69
2023/07/02 06:39:54;;;;;;;31.77;12.30;;;;;;;;;;5027221;28;20026;-70
2023/07/02 06:42:19;;;;;;;36.72;12.65;;;;;;;;;;5027457;28;20029;-69
2023/07/02 06:44:44;;;;;;;36.55;13.73;;;;;;;;;;5027009;28;20056;-69
2023/07/02 06:47:09;;;;;;;36.85;12.60;;;;;;;;;;5027258;28;20395;-69
2023/07/02 06:49:36;;;;;;;32.97;12.75;;;;;;;;;;5027074;28;20415;-70
2023/07/02 06:52:01;;;;;;;35.72;12.27;;;;;;;;;;5026911;28;20036;-69
2023/07/02 06:54:26;;;;;;;35.55;13.05;;;;;;;;;;5027329;28;20029;-70
2023/07/02 06:56:52;;;;;;;36.85;13.82;;;;;;;;;;5028368;28;20034;-69
2023/07/02 06:59:22;;;;;;;33.63;12.57;;;;;;;;;;5030095;28;20037;-69
2023/07/02 07:01:49;;;;;;;34.05;12.02;;;;;;;;;;5029478;28;20036;-69
2023/07/02 07:04:14;;;;;;;31.50;12.23;;;;;;;;;;5027208;28;20451;-69
2023/07/02 07:06:39;;;;;;;34.63;11.77;;;;;;;;;;5026451;28;20131;-69
2023/07/02 07:09:05;;;;;;;26.58;11.07;;;;;;;;;;5013865;28;20521;-69
2023/07/02 07:11:31;;;;;;;32.40;11.68;;;;;;;;;;5015275;28;20033;-69
2023/07/02 07:13:56;;;;;;;29.58;11.10;;;;;;;;;;5040436;28;20573;-69
2023/07/02 07:16:22;;;;;;;35.10;11.32;;;;;;;;;;5018570;28;20550;-69
2023/07/02 07:18:47;;;;;;;33.13;11.85;;;;;;;;;;5019179;28;20026;-70
2023/07/02 07:21:13;;;;;;;35.53;11.07;;;;;;;;;;5025105;28;20027;-69
2023/07/02 07:23:39;;;;;;;32.22;11.05;;;;;;;;;;5025788;28;20060;-70
2023/07/02 07:26:04;;;;;;;34.53;11.35;;;;;;;;;;5025780;28;20032;-70
2023/07/02 07:28:30;;;;;;;35.42;11.25;;;;;;;;;;5026257;28;20038;-69
2023/07/02 07:30:55;;;;;;;30.10;11.18;;;;;;;;;;5024036;28;20056;-70
2023/07/02 07:33:20;;;;;;;33.92;10.63;;;;;;;;;;5050771;28;20037;-69
2023/07/02 07:35:46;;;;;;;34.03;10.88;;;;;;;;;;5025238;28;20041;-70
2023/07/02 07:38:14;;;;;;;32.03;10.75;;;;;;;;;;5025285;28;20431;-70
2023/07/02 07:40:39;;;;;;;31.38;11.60;;;;;;;;;;5025345;28;20042;-70
2023/07/02 07:43:04;;;;;;;24.83;11.10;;;;;;;;;;5025026;28;20041;-70
2023/07/02 07:45:30;;;;;;;26.38;10.52;;;;;;;;;;5018367;28;20036;-70
2023/07/02 07:47:55;;;;;;;24.13;10.00;;;;;;;;;;5013321;28;20030;-70
2023/07/02 07:50:21;;;;;;;32.42;11.02;;;;;;;;;;5014842;28;20037;-70
2023/07/02 07:52:48;;;;;;;30.95;10.25;;;;;;;;;;5013187;28;20076;-69
2023/07/02 07:55:13;;;;;;;28.30;10.63;;;;;;;;;;5023993;28;20530;-69
2023/07/02 07:57:39;;;;;;;26.60;10.07;;;;;;;;;;5026666;28;20026;-69
2023/07/02 08:00:07;;;;;;;33.42;10.55;;;;;;;;;;5013608;28;20065;-71
2023/07/02 08:02:33;;;;;;;25.27;10.98;;;;;;;;;;5019313;28;20585;-69
2023/07/02 08:04:58;;;;;;;31.60;10.32;;;;;;;;;;5013030;28;20030;-70
2023/07/02 08:07:23;;;;;;;26.63;10.98;;;;;;;;;;5014682;28;20045;-70
2023/07/02 08:09:49;;;;;;;24.30;9.85;;;;;;;;;;5006760;28;20034;-69
2023/07/02 08:12:14;;;;;;;27.75;10.27;;;;;;;;;;5017607;28;20017;-69
2023/07/02 08:14:39;;;;;;;28.23;10.40;;;;;;;;;;5020138;28;20482;-69
2023/07/02 08:17:05;;;;;;;29.45;9.85;;;;;;;;;;5012665;28;20653;-70
2023/07/02 08:19:30;;;;;;;27.13;10.38;;;;;;;;;;5010713;28;20057;-69
2023/07/02 08:21:56;;;;;;;29.67;9.85;;;;;;;;;;5016566;28;20029;-70
2023/07/02 08:24:21;;;;;;;21.60;8.98;;;;;;;;;;5019717;28;20057;-70
2023/07/02 08:26:47;;;;;;;32.42;11.18;;;;;;;;;;5019138;28;20137;-70
2023/07/02 08:29:13;;;;;;;29.77;10.13;;;;;;;;;;5024362;28;20044;-70
2023/07/02 08:31:38;;;;;;;28.08;9.80;;;;;;;;;;5024624;28;20025;-71
2023/07/02 08:34:04;;;;;;;21.92;9.40;;;;;;;;;;5023174;28;20030;-70
2023/07/02 08:36:29;;;;;;;22.20;9.13;;;;;;;;;;5024759;28;20017;-70
2023/07/02 08:38:54;;;;;;;24.20;9.13;;;;;;;;;;5024465;28;20082;-70
2023/07/02 08:41:23;;;;;;;26.13;9.18;;;;;;;;;;5024986;28;20029;-71
2023/07/02 08:43:49;;;;;;;23.35;8.98;;;;;;;;;;5023621;28;20033;-70
2023/07/02 08:46:15;;;;;;;19.25;8.73;;;;;;;;;;5024676;28;20032;-70
2023/07/02 08:48:41;;;;;;;21.50;7.45;;;;;;;;;;5023388;28;20022;-70
2023/07/02 08:51:07;;;;;;;21.58;8.25;;;;;;;;;;5025105;28;20418;-70
2023/07/02 08:53:33;;;;;;;22.80;8.52;;;;;;;;;;5024872;28;20029;-70
2023/07/02 08:56:00;;;;;;;21.90;8.02;;;;;;;;;;5025033;28;20041;-71
2023/07/02 08:58:25;;;;;;;24.48;8.27;;;;;;;;;;5023386;28;20030;-70
2023/07/02 09:01:11;;;;;;;24.10;9.88;;;;;;;;;;5024414;28;20025;-70
2023/07/02 09:03:38;;;;;;;21.23;7.97;;;;;;;;;;5025599;28;20056;-70
2023/07/02 09:06:08;;;;;;;23.95;8.35;;;;;;;;;;5018635;28;20041;-70
2023/07/02 09:08:33;;;;;;;21.95;8.38;;;;;;;;;;5016297;28;20089;-70
2023/07/02 09:11:13;;;;;;;22.95;8.25;;;;;;;;;;5020402;28;20521;-70
2023/07/02 09:13:45;;;;;;;23.40;8.15;;;;;;;;;;5013274;28;20044;-70
2023/07/02 09:16:34;;;;;;;20.52;7.57;;;;;;;;;;5023592;28;20048;-70
2023/07/02 09:19:08;;;;;;;22.42;7.80;;;;;;;;;;5024748;28;20047;-70
2023/07/02 09:21:49;;;;;;;19.10;7.13;;;;;;;;;;5023356;28;20042;-70
2023/07/02 09:24:15;;;;;;;19.30;7.30;;;;;;;;;;5023432;28;20033;-70
2023/07/02 09:26:45;;;;;;;19.15;7.40;;;;;;;;;;5023547;28;20515;-70
2023/07/02 09:29:11;;;;;;;21.95;8.60;;;;;;;;;;5022616;28;20036;-70
2023/07/02 09:31:46;;;;;;;24.60;7.80;;;;;;;;;;5023881;28;20037;-70
2023/07/02 09:34:12;;;;;;;22.73;8.45;;;;;;;;;;5023468;28;20079;-70
2023/07/02 09:36:40;;;;;;;19.65;7.60;;;;;;;;;;5024165;28;20699;-70
2023/07/02 09:39:08;;;;;;;25.02;8.25;;;;;;;;;;5023838;28;20128;-71
2023/07/02 09:41:34;;;;;;;21.35;8.07;;;;;;;;;;5024684;28;20091;-70
2023/07/02 09:44:01;;;;;;;18.10;7.78;;;;;;;;;;5027228;28;20037;-70
2023/07/02 09:46:26;;;;;;;21.63;7.57;;;;;;;;;;5026975;28;20037;-70
2023/07/02 09:48:52;;;;;;;22.48;8.15;;;;;;;;;;5024653;28;20033;-70
2023/07/02 09:51:18;;;;;;;19.52;7.93;;;;;;;;;;5027677;28;20014;-69
2023/07/02 09:53:43;;;;;;;15.80;7.13;;;;;;;;;;5026217;28;20037;-70
2023/07/02 09:56:09;;;;;;;22.98;8.10;;;;;;;;;;5025027;28;20048;-69
2023/07/02 09:58:35;;;;;;;18.55;7.80;;;;;;;;;;5019440;28;20041;-69
2023/07/02 10:01:00;;;;;;;20.45;7.50;;;;;;;;;;5009956;28;20111;-69
2023/07/02 10:03:31;;;;;;;22.50;8.18;;;;;;;;;;5052487;28;20033;-69
2023/07/02 10:06:06;;;;;;;21.38;8.27;;;;;;;;;;5026602;28;20060;-69
2023/07/02 10:08:32;;;;;;;19.58;8.27;;;;;;;;;;5014514;28;20475;-69
2023/07/02 10:11:11;;;;;;;19.20;7.22;;;;;;;;;;5025602;28;20709;-69
2023/07/02 10:13:37;;;;;;;18.33;8.52;;;;;;;;;;5027897;28;20052;-69
2023/07/02 10:16:04;;;;;;;19.13;7.57;;;;;;;;;;5023045;28;20064;-69
2023/07/02 10:18:29;;;;;;;26.60;8.98;;;;;;;;;;5028099;28;20090;-69
2023/07/02 10:20:54;;;;;;;28.05;8.48;;;;;;;;;;5026745;28;20506;-69
2023/07/02 10:23:20;;;;;;;21.17;7.97;;;;;;;;;;5026822;28;20509;-69
2023/07/02 10:25:46;;;;;;;19.33;7.47;;;;;;;;;;5027175;28;20042;-69
2023/07/02 10:28:19;;;;;;;22.92;8.00;;;;;;;;;;5027578;28;20030;-69
2023/07/02 10:30:44;;;;;;;;;;;;;;;;;;5023270;28;20026;-70
2023/07/02 10:33:17;;;;;;;17.63;7.45;;;;;;;;;;5027194;28;19912;-69
2023/07/02 10:35:46;;;;;;;16.27;7.80;;;;;;;;;;5026947;28;20035;-69
2023/07/02 10:38:23;;;;;;;24.60;8.23;;;;;;;;;;5027206;28;20029;-69
2023/07/02 10:41:02;;;;;;;24.60;8.18;;;;;;;;;;5026556;28;20044;-69
2023/07/02 10:43:29;;;;;;;21.42;8.20;;;;;;;;;;5025659;28;20045;-69
2023/07/02 10:45:55;;;;;;;19.92;7.57;;;;;;;;;;5025678;28;20423;-69
2023/07/02 10:48:20;;;;;;;19.30;8.48;;;;;;;;;;5026867;28;20556;-69
2023/07/02 10:50:46;;;;;;;21.13;8.50;;;;;;;;;;5026997;28;20036;-69
2023/07/02 10:53:16;;;;;;;20.73;8.35;;;;;;;;;;5026034;28;20092;-69
2023/07/02 10:55:41;;;;;;;22.45;7.47;;;;;;;;;;5014088;28;20041;-69
2023/07/02 10:58:09;;;;;;;21.33;7.60;;;;;;;;;;5026762;28;20029;-70
2023/07/02 11:00:49;;;;;;;21.20;7.97;;;;;;;;;;5026942;28;20104;-70
2023/07/02 11:03:19;;;;;;;19.05;7.43;;;;;;;;;;5027192;28;20076;-69
2023/07/02 11:05:45;;;;;;;17.17;7.63;;;;;;;;;;5026050;28;20107;-69
2023/07/02 11:08:10;;;;;;;21.30;6.72;;;;;;;;;;5026773;28;20450;-69
2023/07/02 11:10:35;;;;;;;19.02;8.25;;;;;;;;;;5026659;28;20033;-69
2023/07/02 11:13:19;;;;;;;21.70;7.78;;;;;;;;;;5030014;28;20029;-69
2023/07/02 11:15:46;;;;;;;18.88;7.80;;;;;;;;;;5027806;28;20064;-69
2023/07/02 11:18:21;;;;;;;19.38;6.97;;;;;;;;;;5027254;28;20100;-69
2023/07/02 11:20:47;;;;;;;20.52;7.75;;;;;;;;;;5026249;28;20041;-69
2023/07/02 11:23:24;;;;;;;22.52;8.27;;;;;;;;;;5025708;28;20039;-69
2023/07/02 11:25:59;;;;;;;18.52;7.55;;;;;;;;;;5025908;28;20056;-69
2023/07/02 11:28:26;;;;;;;20.48;7.22;;;;;;;;;;5026551;28;20050;-69
2023/07/02 11:30:51;;;;;;;21.30;7.60;;;;;;;;;;5025859;28;20033;-69
2023/07/02 11:33:17;;;;;;;19.65;7.28;;;;;;;;;;5026233;28;20032;-69
2023/07/02 11:35:43;;;;;;;19.75;8.20;;;;;;;;;;5025517;28;20477;-69
2023/07/02 11:38:10;;;;;;;22.45;7.63;;;;;;;;;;5026179;28;20554;-69
2023/07/02 11:40:36;;;;;;;24.48;8.55;;;;;;;;;;5024017;28;20052;-69
2023/07/02 11:43:01;;;;;;;24.58;7.68;;;;;;;;;;5026173;28;20033;-69
2023/07/02 11:45:27;;;;;;;18.13;7.13;;;;;;;;;;5024398;28;20411;-69
2023/07/02 11:47:52;;;;;;;20.92;7.13;;;;;;;;;;5024152;28;20128;-69
2023/07/02 11:50:17;;;;;;;15.27;6.45;;;;;;;;;;5025887;28;20112;-69
2023/07/02 11:52:42;;;;;;;17.25;6.47;;;;;;;;;;5024927;28;20448;-69
2023/07/02 11:55:08;;;;;;;18.25;6.50;;;;;;;;;;5025172;28;20033;-69
2023/07/02 11:57:33;;;;;;;19.77;6.57;;;;;;;;;;5026053;28;20029;-69
2023/07/02 11:59:59;;;;;;;19.27;7.10;;;;;;;;;;5024273;28;20676;-70
2023/07/02 12:02:25;;;;;;;16.80;7.03;;;;;;;;;;5023818;28;20096;-70
2023/07/02 12:04:50;;;;;;;21.63;6.78;;;;;;;;;;5024904;28;20471;-69
2023/07/02 12:07:16;;;;;;;16.25;6.63;;;;;;;;;;5023885;28;20039;-69
2023/07/02 12:09:41;;;;;;;20.13;6.55;;;;;;;;;;5025689;28;20048;-69
2023/07/02 12:12:07;;;;;;;19.55;7.25;;;;;;;;;;5026004;28;20026;-70
2023/07/02 12:14:32;;;;;;;21.38;6.68;;;;;;;;;;5025128;28;20034;-69
2023/07/02 12:16:57;;;;;;;18.40;7.60;;;;;;;;;;5022651;28;20029;-69
2023/07/02 12:19:23;;;;;;;18.60;6.43;;;;;;;;;;5025310;28;20045;-69
2023/07/02 12:21:48;;;;;;;18.77;6.45;;;;;;;;;;5024184;28;20025;-69
2023/07/02 12:24:14;;;;;;;17.73;6.63;;;;;;;;;;5025191;28;20032;-69
2023/07/02 12:26:39;;;;;;;16.98;7.03;;;;;;;;;;5025423;28;20033;-69
2023/07/02 12:29:05;;;;;;;16.95;6.95;;;;;;;;;;5024313;28;20063;-69
2023/07/02 12:31:31;;;;;;;22.88;7.65;;;;;;;;;;5025019;28;20030;-69
2023/07/02 12:33:56;;;;;;;20.50;6.70;;;;;;;;;;5023667;28;20021;-69
2023/07/02 12:36:22;;;;;;;19.95;7.00;;;;;;;;;;5024865;28;20103;-69
2023/07/02 12:38:47;;;;;;;19.98;6.28;;;;;;;;;;5026799;28;20037;-69
2023/07/02 12:41:12;;;;;;;14.50;6.55;;;;;;;;;;5030117;28;20148;-70
2023/07/02 12:43:38;;;;;;;13.43;6.55;;;;;;;;;;5025442;28;20147;-70
2023/07/02 12:46:03;;;;;;;17.85;6.47;;;;;;;;;;5024596;28;20495;-69
2023/07/02 12:48:29;;;;;;;14.27;6.95;;;;;;;;;;5024284;28;20044;-69
2023/07/02 12:50:56;;;;;;;17.80;6.50;;;;;;;;;;5024579;28;20034;-69
2023/07/02 12:53:21;;;;;;;20.63;7.57;;;;;;;;;;5024726;28;20544;-69
2023/07/02 12:55:47;;;;;;;18.45;7.03;;;;;;;;;;5024025;28;20065;-69
2023/07/02 12:58:12;;;;;;;18.05;7.20;;;;;;;;;;5023939;28;20172;-70
2023/07/02 13:00:37;;;;;;;17.88;7.03;;;;;;;;;;5024165;28;20013;-69
2023/07/02 13:03:03;;;;;;;18.52;7.45;;;;;;;;;;5023927;28;20048;-69
2023/07/02 13:05:28;;;;;;;16.35;6.75;;;;;;;;;;5023463;28;20474;-69
2023/07/02 13:07:53;;;;;;;22.23;7.28;;;;;;;;;;5024743;28;20033;-69
2023/07/02 13:10:19;;;;;;;20.50;7.13;;;;;;;;;;5024960;28;20537;-69
2023/07/02 13:12:44;;;;;;;18.63;7.18;;;;;;;;;;5025032;28;20120;-70
2023/07/02 13:15:11;;;;;;;19.92;6.75;;;;;;;;;;5022846;28;20510;-69
2023/07/02 13:17:36;;;;;;;18.60;6.93;;;;;;;;;;5024592;28;20515;-69
2023/07/02 13:20:02;;;;;;;16.85;6.85;;;;;;;;;;5027044;28;20030;-69
2023/07/02 13:22:28;;;;;;;16.98;6.47;;;;;;;;;;5027117;28;20060;-70
2023/07/02 13:24:53;;;;;;;18.52;6.53;;;;;;;;;;5028755;28;20523;-70
2023/07/02 13:27:19;;;;;;;17.60;7.13;;;;;;;;;;5027115;28;20028;-69
2023/07/02 13:29:44;;;;;;;16.65;6.95;;;;;;;;;;5028481;28;20556;-69
2023/07/02 13:32:11;;;;;;;16.83;6.60;;;;;;;;;;5028016;28;20037;-69
2023/07/02 13:34:36;;;;;;;17.10;7.43;;;;;;;;;;5028211;28;20068;-69
2023/07/02 13:37:02;;;;;;;17.35;6.75;;;;;;;;;;5028061;28;20414;-70
2023/07/02 13:39:28;;;;;;;16.52;6.13;;;;;;;;;;5029104;28;20056;-69
2023/07/02 13:41:54;;;;;;;18.30;6.32;;;;;;;;;;5027905;28;20114;-69
2023/07/02 13:44:19;;;;;;;14.90;7.00;;;;;;;;;;5028122;28;20036;-69
2023/07/02 13:46:45;;;;;;;18.67;6.68;;;;;;;;;;5028412;28;20131;-69
2023/07/02 13:49:10;;;;;;;15.93;6.55;;;;;;;;;;5028105;28;20030;-69
2023/07/02 13:51:36;;;;;;;16.58;6.82;;;;;;;;;;5027974;28;20036;-69
2023/07/02 13:54:02;;;;;;;14.00;6.30;;;;;;;;;;5027692;28;20033;-70
2023/07/02 13:56:27;;;;;;;16.67;6.88;;;;;;;;;;5027428;28;20052;-70
2023/07/02 13:58:55;;;;;;;16.40;6.07;;;;;;;;;;5027937;28;20158;-69
2023/07/02 14:01:21;;;;;;;15.57;6.55;;;;;;;;;;5027031;28;20060;-69
2023/07/02 14:03:46;;;;;;;20.40;7.47;;;;;;;;;;5029614;28;20026;-69
2023/07/02 14:06:12;;;;;;;16.27;5.90;;;;;;;;;;5032372;28;20042;-70
2023/07/02 14:08:37;;;;;;;13.70;5.82;;;;;;;;;;5028111;28;20049;-69
2023/07/02 14:11:03;;;;;;;15.75;6.32;;;;;;;;;;5027744;28;20060;-70
2023/07/02 14:13:28;;;;;;;16.35;6.65;;;;;;;;;;5027319;28;20037;-70
2023/07/02 14:15:53;;;;;;;14.65;6.40;;;;;;;;;;5024435;28;20025;-70
2023/07/02 14:18:19;;;;;;;16.23;6.55;;;;;;;;;;5027987;28;20539;-69